createdAt,value
2023-08-02T00:06:48.478Z,98617.52
2023-08-02T00:10:48.487Z,98611.35
2023-08-02T00:14:48.359Z,98606.98999999999
2023-08-02T00:18:48.217Z,98599.94
2023-08-02T00:22:48.476Z,98583.61
2023-08-02T00:30:48.540Z,98566.16
2023-08-02T00:34:54.545Z,98561.43
2023-08-02T00:38:48.548Z,98550.98000000001
2023-08-02T00:42:48.301Z,98539.84
2023-08-02T00:46:48.773Z,98522.02
2023-08-02T00:58:48.437Z,98500.01999999999
2023-08-02T01:02:49.314Z,98483.2
2023-08-02T01:06:53.959Z,98456.3
2023-08-02T01:10:53.604Z,98440.14
2023-08-02T01:18:48.386Z,98430.94
2023-08-02T01:22:48.682Z,98419.97
2023-08-02T01:26:48.531Z,98406.53
2023-08-02T01:34:50.020Z,98373.13
2023-08-02T01:38:48.508Z,98351.34000000001
2023-08-02T01:43:41.700Z,98337.44
2023-08-02T01:50:48.894Z,98317.55
2023-08-02T01:54:48.571Z,98314.22
2023-08-02T01:58:48.642Z,98285.38
2023-08-02T02:02:49.505Z,98258.94
2023-08-02T02:06:49.910Z,98240.59
2023-08-02T02:10:48.661Z,98227.03
2023-08-02T02:14:48.884Z,98217.46
2023-08-02T02:18:48.749Z,98202.20000000001
2023-08-02T02:22:48.692Z,98195.04
2023-08-02T02:26:48.921Z,98178.27
2023-08-02T02:30:49.045Z,98152.89
2023-08-02T02:34:48.655Z,98141.5
2023-08-02T02:38:49.142Z,98133.72
2023-08-02T02:42:48.668Z,98118.47
2023-08-02T02:46:48.870Z,98102.26
2023-08-02T02:50:48.725Z,98084.03
2023-08-02T02:54:49.210Z,98068.8
2023-08-02T02:58:48.722Z,98050.87
2023-08-02T03:02:49.152Z,98038.03
2023-08-02T03:10:48.830Z,97994.53
2023-08-02T03:22:48.902Z,97957.34999999999
2023-08-02T03:26:48.823Z,97955.7
2023-08-02T03:30:49.053Z,97930.61
2023-08-02T03:34:48.973Z,97925.33
2023-08-02T03:42:49.060Z,97903.94
2023-08-02T03:50:49.053Z,97893.73000000001
2023-08-02T03:54:48.849Z,97885.39
2023-08-02T03:58:49.652Z,97871.12
2023-08-02T04:02:49.114Z,97875.57
2023-08-02T04:06:49.128Z,97857.87
2023-08-02T04:10:48.859Z,97865.52
2023-08-02T04:14:49.027Z,97864.4
2023-08-02T04:18:48.911Z,97849.56
2023-08-02T04:22:49.968Z,97853.58
2023-08-02T04:26:48.964Z,97835.72
2023-08-02T04:30:49.280Z,97815.89
2023-08-02T04:34:48.982Z,97820.20999999999
2023-08-02T04:38:51.264Z,97818.98
2023-08-02T04:42:50.694Z,97805.38
2023-08-02T04:46:49.089Z,97809.66
2023-08-02T04:50:49.343Z,97806.86
2023-08-02T04:54:49.097Z,97807.15
2023-08-02T04:58:49.121Z,97804.25
2023-08-02T05:14:49.179Z,97797.96
2023-08-02T05:18:49.229Z,97790.93000000001
2023-08-02T05:22:49.910Z,97787.78
2023-08-02T05:30:49.271Z,97777.8
2023-08-02T05:34:49.138Z,97770.15
2023-08-02T05:38:49.234Z,97762.01999999999
2023-08-02T05:42:49.245Z,97755.64
2023-08-02T05:46:49.475Z,97765.73
2023-08-02T05:50:49.302Z,97758.54000000001
2023-08-02T05:54:49.243Z,97755.78
2023-08-02T05:58:49.208Z,97742.22
2023-08-02T06:02:49.633Z,97745.73000000001
2023-08-02T06:06:49.344Z,97744.67
2023-08-02T06:10:49.300Z,97738.62000000001
2023-08-02T06:14:49.250Z,97734.31
2023-08-02T06:18:49.561Z,97733.08
2023-08-02T06:22:49.292Z,97736.8
2023-08-02T06:26:49.409Z,97736.73999999999
2023-08-02T06:30:49.373Z,97730.84
2023-08-02T06:34:50.023Z,97736.97
2023-08-02T06:38:49.333Z,97746.17
2023-08-02T06:42:49.570Z,97739.45
2023-08-02T06:46:49.511Z,97737.19
2023-08-02T06:50:49.904Z,97736.72
2023-08-02T06:54:51.904Z,97736.75
2023-08-02T06:58:49.675Z,97735.29999999999
2023-08-02T07:02:49.469Z,97728.57
2023-08-02T07:06:49.563Z,97726.14
2023-08-02T07:10:49.528Z,97726.14
2023-08-02T07:14:49.583Z,97729.49
2023-08-02T07:18:49.639Z,97744.5
2023-08-02T07:22:49.762Z,97735.25
2023-08-02T07:26:49.487Z,97736.44
2023-08-02T07:30:49.596Z,97736.3
2023-08-02T07:34:49.523Z,97733.76
2023-08-02T07:38:49.735Z,97723.92
2023-08-02T07:42:49.577Z,97713.81
2023-08-02T07:46:50.530Z,97729.39
2023-08-02T07:50:49.571Z,97733.25
2023-08-02T07:54:56.267Z,97734.39
2023-08-02T08:02:49.870Z,97742.85
2023-08-02T08:06:49.715Z,97744.11
2023-08-02T08:10:51.576Z,97741.66
2023-08-02T08:14:49.627Z,97744.8
2023-08-02T08:18:51.938Z,97744.8
2023-08-02T08:22:49.591Z,97737.57
2023-08-02T08:28:34.075Z,97733.42
2023-08-02T08:34:49.657Z,97727.13
2023-08-02T08:38:51.304Z,97727.11
2023-08-02T08:42:50.783Z,97726.01
2023-08-02T08:46:50.762Z,97728.83
2023-08-02T08:50:51.055Z,97721.7
2023-08-02T08:54:50.753Z,97723.20999999999
2023-08-02T08:58:51.981Z,97721.70999999999
2023-08-02T09:02:51.365Z,97727.45
2023-08-02T09:06:49.843Z,97723.29999999999
2023-08-02T09:10:49.750Z,97715.95
2023-08-02T09:15:01.013Z,97722.81
2023-08-02T09:18:50.474Z,97721.78
2023-08-02T09:23:14.977Z,97723.97
2023-08-02T09:26:55.203Z,97720.25
2023-08-02T09:30:54.691Z,97713.99
2023-08-02T09:34:52.865Z,97726.89
2023-08-02T09:38:58.746Z,97707.37000000001
2023-08-02T09:42:56.850Z,97707.11
2023-08-02T09:46:50.881Z,97710.93
2023-08-02T09:50:52.602Z,97714.79000000001
2023-08-02T09:54:50.073Z,97714.31
2023-08-02T10:02:50.781Z,97701.97
2023-08-02T10:06:53.109Z,97710.51999999999
2023-08-02T10:10:50.072Z,97706.72
2023-08-02T10:15:01.999Z,97706.72
2023-08-02T10:17:20.149Z,97706.74
2023-08-02T10:18:50.769Z,97701.23
2023-08-02T10:22:51.317Z,97705.36
2023-08-02T10:27:15.118Z,97705.16
2023-08-02T10:31:34.596Z,97710.75
2023-08-02T10:37:52.841Z,97696.12
2023-08-02T10:40:49.119Z,97713.4
2023-08-02T10:45:11.302Z,97732.98999999999
2023-08-02T10:47:11.100Z,97718.47
2023-08-02T10:50:48.454Z,97718.47
2023-08-02T10:50:50.272Z,97717.74
2023-08-02T10:58:52.086Z,97714.92
2023-08-02T11:02:51.892Z,97714.64
2023-08-02T11:06:50.514Z,97719.01000000001
2023-08-02T11:14:51.775Z,97703.56
2023-08-02T11:19:00.456Z,97689.61
2023-08-02T11:22:50.362Z,97687.87
2023-08-02T11:30:50.990Z,97685.53
2023-08-02T11:34:50.256Z,97684.56
2023-08-02T11:38:50.451Z,97678.67
2023-08-02T11:42:53.786Z,97682.44
2023-08-02T11:46:53.247Z,97691.11
2023-08-02T11:50:50.588Z,97681.91
2023-08-02T11:54:50.713Z,97683.36
2023-08-02T11:58:52.105Z,97680.35
2023-08-02T12:02:50.331Z,97675.39
2023-08-02T12:06:51.528Z,97671.61
2023-08-02T12:10:51.331Z,97674.08
2023-08-02T12:14:52.530Z,97675.98000000001
2023-08-02T12:18:56.534Z,97667.5
2023-08-02T12:22:50.614Z,97662.23
2023-08-02T12:26:50.527Z,97653.23
2023-08-02T12:31:03.013Z,97645.37
2023-08-02T12:38:50.553Z,97652.71
2023-08-02T12:43:01.481Z,97661.69
2023-08-02T12:46:50.661Z,97644.75
2023-08-02T12:50:50.446Z,97635.51999999999
2023-08-02T12:54:50.675Z,97632.76
2023-08-02T12:58:50.736Z,97627.58
2023-08-02T13:02:50.694Z,97625.61
2023-08-02T13:06:55.433Z,97624.89
2023-08-02T13:10:51.781Z,97624.58
2023-08-02T13:14:50.442Z,97622.63
2023-08-02T13:18:50.734Z,97619.42
2023-08-02T13:22:50.494Z,97623.11
2023-08-02T13:26:50.574Z,97619.87000000001
2023-08-02T13:31:06.146Z,97616.18
2023-08-02T13:34:50.664Z,97616.18
2023-08-02T13:38:04.218Z,97613.58
2023-08-02T13:38:50.579Z,97612.22
2023-08-02T13:42:50.937Z,97609.26
2023-08-02T13:46:50.536Z,97601.56
2023-08-02T13:50:50.604Z,97606.06
2023-08-02T13:54:50.826Z,97609.72
2023-08-02T13:58:50.720Z,97604.08
2023-08-02T14:02:50.659Z,97600.04000000001
2023-08-02T14:06:50.911Z,97600.01999999999
2023-08-02T14:10:50.916Z,97594.67
2023-08-02T14:14:50.848Z,97590.69
2023-08-02T14:18:50.641Z,97585.28
2023-08-02T14:22:50.913Z,97584.02
2023-08-02T14:26:50.677Z,97575.89
2023-08-02T14:30:50.914Z,97578.09
2023-08-02T14:34:50.705Z,97567.79000000001
2023-08-02T14:46:51.013Z,97575.9
2023-08-02T14:50:51.741Z,97572.79999999999
2023-08-02T14:54:50.814Z,97571.08
2023-08-02T14:58:50.760Z,97567.11
2023-08-02T15:02:51.509Z,97570.97
2023-08-02T15:06:50.848Z,97563.03
2023-08-02T15:11:06.189Z,97563.37
2023-08-02T15:15:55.138Z,97562.23999999999
2023-08-02T15:18:51.022Z,97557.15
2023-08-02T15:22:50.851Z,97558.09000000001
2023-08-02T15:26:51.613Z,97551.65
2023-08-02T15:30:51.093Z,97548.20999999999
2023-08-02T15:34:51.129Z,97548.92
2023-08-02T15:38:51.849Z,97556.97
2023-08-02T15:42:51.029Z,97555.6
2023-08-02T15:46:50.935Z,97555.55
2023-08-02T15:50:51.242Z,97549.14
2023-08-02T15:54:51.015Z,97555.8
2023-08-02T15:58:51.372Z,97560.47
2023-08-02T16:02:50.967Z,97562.77
2023-08-02T16:06:51.544Z,97565.47
2023-08-02T16:14:51.120Z,97568.26999999999
2023-08-02T16:18:51.185Z,97570.7
2023-08-02T16:22:51.068Z,97577.17
2023-08-02T16:27:37.913Z,97577.54
2023-08-02T16:31:45.927Z,97581.69
2023-08-02T16:34:51.224Z,97591.69
2023-08-02T16:38:51.217Z,97595.33
2023-08-02T16:46:51.230Z,97602.89
2023-08-02T16:50:51.139Z,97597.02
2023-08-02T16:54:51.205Z,97601.37
2023-08-02T16:58:51.268Z,97608.73
2023-08-02T17:02:51.326Z,97618.82
2023-08-02T17:10:51.410Z,97612.08
2023-08-02T17:14:51.159Z,97609.55
2023-08-02T17:18:51.726Z,97609.14
2023-08-02T17:22:51.304Z,97609.28
2023-08-02T17:26:51.260Z,97607.76
2023-08-02T17:30:52.062Z,97608.2
2023-08-02T17:34:51.437Z,97605.58
2023-08-02T17:38:51.224Z,97612.22
2023-08-02T17:42:51.975Z,97618.03
2023-08-02T17:46:51.823Z,97634.79999999999
2023-08-02T17:50:53.363Z,97643.93
2023-08-02T17:54:51.365Z,97649.11
2023-08-02T17:58:51.429Z,97654.5
2023-08-02T18:02:51.619Z,97659.27
2023-08-02T18:06:52.402Z,97661.25
2023-08-02T18:10:51.489Z,97665.26
2023-08-02T18:14:51.457Z,97675.69
2023-08-02T18:18:51.417Z,97689.43000000001
2023-08-02T18:22:51.531Z,97701.36
2023-08-02T18:26:51.375Z,97711.53
2023-08-02T18:30:55.377Z,97720.67
2023-08-02T18:34:51.465Z,97733.69
2023-08-02T18:38:51.586Z,97746.94
2023-08-02T18:42:51.894Z,97757.01000000001
2023-08-02T18:46:51.583Z,97767.76999999999
2023-08-02T18:50:51.464Z,97782.59000000001
2023-08-02T18:54:51.605Z,97794.67
2023-08-02T18:58:52.017Z,97807.11
2023-08-02T19:02:53.479Z,97823.15999999999
2023-08-02T19:06:51.506Z,97824.40000000001
2023-08-02T19:10:51.754Z,97835.5
2023-08-02T19:14:51.523Z,97840.31
2023-08-02T19:18:51.876Z,97855.84
2023-08-02T19:22:51.550Z,97867.15000000001
2023-08-02T19:26:51.673Z,97869.78
2023-08-02T19:30:51.785Z,97878.18
2023-08-02T19:34:51.896Z,97884.95
2023-08-02T19:38:51.600Z,97889.5
2023-08-02T19:42:51.678Z,97895.06
2023-08-02T19:46:51.950Z,97899.41
2023-08-02T19:50:54.092Z,97910.5
2023-08-02T19:54:51.639Z,97917.5
2023-08-02T19:58:56.324Z,97932.86
2023-08-02T20:02:51.765Z,97947.43999999999
2023-08-02T20:06:52.063Z,97956.31
2023-08-02T20:10:54.558Z,97973.05
2023-08-02T20:16:16.801Z,97984.23
2023-08-02T20:18:52.997Z,97999.87999999999
2023-08-02T20:22:52.499Z,98014.37
2023-08-02T20:26:52.000Z,98023.35
2023-08-02T20:42:57.044Z,98077.59
2023-08-02T20:46:51.953Z,98087.26000000001
2023-08-02T20:50:52.330Z,98095.39
2023-08-02T20:54:51.799Z,98102.36
2023-08-02T20:58:52.193Z,98107.5
2023-08-02T21:02:51.901Z,98122.86
2023-08-02T21:07:09.518Z,98132.48
2023-08-02T21:10:53.256Z,98132.48
2023-08-02T21:14:51.993Z,98153.19
2023-08-02T21:18:52.082Z,98159.92
2023-08-02T21:22:52.016Z,98168.11
2023-08-02T21:26:53.705Z,98187.14
2023-08-02T21:30:54.268Z,98201.33
2023-08-02T21:34:51.902Z,98197.5
2023-08-02T21:38:52.467Z,98213.37
2023-08-02T21:42:53.280Z,98224.61
2023-08-02T21:46:52.257Z,98236.21
2023-08-02T21:50:52.343Z,98247.63
2023-08-02T21:54:52.105Z,98255.2
2023-08-02T21:58:56.582Z,98267.38
2023-08-02T22:02:52.898Z,98270.01000000001
2023-08-02T22:06:52.094Z,98281.41
2023-08-02T22:10:52.022Z,98287.73
2023-08-02T22:15:00.993Z,98299.5
2023-08-02T22:18:52.046Z,98309.76000000001
2023-08-02T22:22:52.098Z,98317.67
2023-08-02T22:26:52.104Z,98328.16
2023-08-02T22:30:52.132Z,98339.14
2023-08-02T22:34:52.154Z,98347.79999999999
2023-08-02T22:38:52.251Z,98366.04999999999
2023-08-02T22:42:52.301Z,98368.8
2023-08-02T22:46:52.462Z,98380.95
2023-08-02T22:50:55.914Z,98389.14
2023-08-02T22:54:52.926Z,98400.27
2023-08-02T22:58:57.538Z,98409.93999999999
2023-08-02T23:02:52.481Z,98417.42
2023-08-02T23:06:52.619Z,98425.0
2023-08-02T23:10:54.422Z,98431.72
2023-08-02T23:14:57.794Z,98439.29000000001
2023-08-02T23:18:56.102Z,98445.53
2023-08-02T23:26:52.638Z,98462.41
2023-08-02T23:30:52.911Z,98470.92
2023-08-02T23:34:52.321Z,98477.09
2023-08-02T23:42:52.434Z,98489.12
2023-08-02T23:46:52.297Z,98491.24
2023-08-02T23:50:52.356Z,98505.42
2023-08-02T23:54:52.275Z,98513.89
2023-08-02T23:58:52.412Z,98523.64
